createdAt,value
2023-04-29T00:00:58.861Z,9.89
2023-04-29T00:01:57.408Z,9.85
2023-04-29T00:02:59.047Z,9.83
2023-04-29T00:03:58.954Z,9.82
2023-04-29T00:04:59.050Z,9.78
2023-04-29T00:05:59.010Z,9.81
2023-04-29T00:06:58.787Z,9.78
2023-04-29T00:07:58.763Z,9.78
2023-04-29T00:08:58.748Z,9.83
2023-04-29T00:09:57.292Z,9.85
2023-04-29T00:10:58.713Z,9.83
2023-04-29T00:11:58.731Z,9.83
2023-04-29T00:12:58.691Z,9.79
2023-04-29T00:13:58.677Z,9.81
2023-04-29T00:14:58.669Z,9.85
2023-04-29T00:15:57.657Z,9.85
2023-04-29T00:16:57.318Z,9.83
2023-04-29T00:17:57.675Z,9.85
2023-04-29T00:18:58.622Z,9.88
2023-04-29T00:19:58.599Z,9.86
2023-04-29T00:20:58.604Z,9.86
2023-04-29T00:21:58.583Z,9.88
2023-04-29T00:22:58.565Z,9.89
2023-04-29T00:23:57.291Z,9.89
2023-04-29T00:24:57.333Z,9.93
2023-04-29T00:25:57.352Z,9.93
2023-04-29T00:26:58.509Z,9.94
2023-04-29T00:27:57.428Z,9.97
2023-04-29T00:28:58.483Z,10.00
2023-04-29T00:29:58.474Z,10.01
2023-04-29T00:30:58.485Z,10.00
2023-04-29T00:31:58.463Z,9.97
2023-04-29T00:32:58.509Z,10.03
2023-04-29T00:33:56.940Z,10.07
2023-04-29T00:34:58.391Z,10.10
2023-04-29T00:35:57.491Z,10.12
2023-04-29T00:36:58.403Z,10.10
2023-04-29T00:37:57.665Z,10.15
2023-04-29T00:38:58.338Z,10.17
2023-04-29T00:39:58.325Z,10.21
2023-04-29T00:40:58.327Z,10.26
2023-04-29T00:41:58.299Z,10.32
2023-04-29T00:42:58.285Z,10.33
2023-04-29T00:43:58.285Z,10.34
2023-04-29T00:44:58.261Z,10.36
2023-04-29T00:45:58.315Z,10.43
2023-04-29T00:46:58.264Z,10.51
2023-04-29T00:47:58.262Z,10.52
2023-04-29T00:48:58.198Z,10.51
2023-04-29T00:49:57.485Z,10.47
2023-04-29T00:50:58.173Z,10.51
2023-04-29T00:51:58.188Z,10.47
2023-04-29T00:52:58.144Z,10.47
2023-04-29T00:53:58.135Z,10.55
2023-04-29T00:54:58.126Z,10.58
2023-04-29T00:55:58.090Z,10.58
2023-04-29T00:56:56.654Z,10.56
2023-04-29T00:57:58.086Z,10.53
2023-04-29T00:58:58.081Z,10.43
2023-04-29T00:59:58.052Z,10.43
2023-04-29T01:00:58.044Z,10.40
2023-04-29T01:01:58.066Z,10.34
2023-04-29T01:02:58.095Z,10.33
2023-04-29T01:03:58.215Z,10.32
2023-04-29T01:04:58.041Z,10.30
2023-04-29T01:05:57.976Z,10.28
2023-04-29T01:06:57.972Z,10.25
2023-04-29T01:07:57.939Z,10.28
2023-04-29T01:08:57.439Z,10.32
2023-04-29T01:09:57.927Z,10.32
2023-04-29T01:10:57.911Z,10.32
2023-04-29T01:11:57.909Z,10.34
2023-04-29T01:12:57.889Z,10.32
2023-04-29T01:13:56.414Z,10.32
2023-04-29T01:14:57.857Z,10.25
2023-04-29T01:15:57.894Z,10.22
2023-04-29T01:16:57.841Z,10.19
2023-04-29T01:17:57.838Z,10.15
2023-04-29T01:18:57.811Z,10.06
2023-04-29T01:19:57.784Z,10.03
2023-04-29T01:20:57.764Z,10.00
2023-04-29T01:21:57.763Z,9.97
2023-04-29T01:22:57.762Z,9.97
2023-04-29T01:23:57.742Z,9.96
2023-04-29T01:24:57.719Z,9.94
2023-04-29T01:25:56.776Z,9.93
2023-04-29T01:26:57.701Z,9.83
2023-04-29T01:27:57.683Z,9.82
2023-04-29T01:28:56.213Z,9.82
2023-04-29T01:29:56.414Z,9.83
2023-04-29T01:30:57.658Z,9.82
2023-04-29T01:31:57.793Z,9.75
2023-04-29T01:32:57.677Z,9.76
2023-04-29T01:33:56.420Z,9.76
2023-04-29T01:34:57.593Z,9.78
2023-04-29T01:35:56.409Z,9.75
2023-04-29T01:36:56.177Z,9.67
2023-04-29T01:37:56.314Z,9.63
2023-04-29T01:38:57.547Z,9.67
2023-04-29T01:39:56.419Z,9.68
2023-04-29T01:40:57.497Z,9.64
2023-04-29T01:41:57.498Z,9.61
2023-04-29T01:42:57.479Z,9.57
2023-04-29T01:43:57.470Z,9.56
2023-04-29T01:44:56.234Z,9.57
2023-04-29T01:45:56.155Z,9.53
2023-04-29T01:46:57.510Z,9.49
2023-04-29T01:47:56.373Z,9.48
2023-04-29T01:48:57.350Z,9.43
2023-04-29T01:49:57.386Z,9.39
2023-04-29T01:50:57.372Z,9.38
2023-04-29T01:51:57.372Z,9.35
2023-04-29T01:52:56.844Z,9.45
2023-04-29T01:53:57.352Z,9.52
2023-04-29T01:54:57.319Z,9.56
2023-04-29T01:55:57.292Z,9.61
2023-04-29T01:56:57.319Z,9.57
2023-04-29T01:57:57.284Z,9.60
2023-04-29T01:58:57.259Z,9.60
2023-04-29T01:59:56.296Z,9.56
2023-04-29T02:00:56.457Z,9.40
2023-04-29T02:01:57.222Z,9.34
2023-04-29T02:02:57.317Z,9.40
2023-04-29T02:03:57.333Z,9.39
2023-04-29T02:04:57.375Z,9.35
2023-04-29T02:05:57.170Z,9.35
2023-04-29T02:06:57.153Z,9.34
2023-04-29T02:07:57.154Z,9.31
2023-04-29T02:08:55.675Z,9.31
2023-04-29T02:09:57.108Z,9.25
2023-04-29T02:10:57.173Z,9.24
2023-04-29T02:11:57.075Z,9.18
2023-04-29T02:12:57.089Z,9.13
2023-04-29T02:13:57.070Z,9.06
2023-04-29T02:14:57.062Z,9.10
2023-04-29T02:15:57.056Z,9.10
2023-04-29T02:16:55.586Z,9.06
2023-04-29T02:17:55.775Z,9.02
2023-04-29T02:18:57.025Z,8.94
2023-04-29T02:19:56.976Z,8.93
2023-04-29T02:20:56.968Z,8.97
2023-04-29T02:21:56.959Z,9.01
2023-04-29T02:22:56.458Z,9.02
2023-04-29T02:23:56.936Z,9.01
2023-04-29T02:24:55.465Z,8.99
2023-04-29T02:25:56.890Z,8.96
2023-04-29T02:26:56.886Z,8.93
2023-04-29T02:27:56.882Z,8.87
2023-04-29T02:28:56.854Z,8.84
2023-04-29T02:29:56.862Z,8.81
2023-04-29T02:30:56.825Z,8.78
2023-04-29T02:31:56.846Z,8.73
2023-04-29T02:32:56.851Z,8.72
2023-04-29T02:33:56.784Z,8.73
2023-04-29T02:34:56.775Z,8.73
2023-04-29T02:35:56.788Z,8.73
2023-04-29T02:36:56.756Z,8.78
2023-04-29T02:37:55.780Z,8.76
2023-04-29T02:38:56.723Z,8.79
2023-04-29T02:39:56.724Z,8.79
2023-04-29T02:40:55.772Z,8.78
2023-04-29T02:41:56.693Z,8.78
2023-04-29T02:42:56.672Z,8.73
2023-04-29T02:43:55.736Z,8.73
2023-04-29T02:44:56.638Z,8.76
2023-04-29T02:45:56.672Z,8.75
2023-04-29T02:46:56.610Z,8.75
2023-04-29T02:47:56.699Z,8.73
2023-04-29T02:48:55.532Z,8.71
2023-04-29T02:49:55.790Z,8.69
2023-04-29T02:50:56.558Z,8.65
2023-04-29T02:51:56.548Z,8.58
2023-04-29T02:52:56.534Z,8.58
2023-04-29T02:53:56.520Z,8.53
2023-04-29T02:54:56.517Z,8.53
2023-04-29T02:55:55.794Z,8.51
2023-04-29T02:56:55.027Z,8.48
2023-04-29T02:57:56.488Z,8.42
2023-04-29T02:58:56.469Z,8.40
2023-04-29T02:59:56.454Z,8.39
2023-04-29T03:00:56.458Z,8.37
2023-04-29T03:01:56.414Z,8.36
2023-04-29T03:02:56.524Z,8.35
2023-04-29T03:03:56.576Z,8.32
2023-04-29T03:04:54.932Z,8.28
2023-04-29T03:05:56.352Z,8.22
2023-04-29T03:06:56.345Z,8.21
2023-04-29T03:07:56.348Z,8.17
2023-04-29T03:08:56.322Z,8.14
2023-04-29T03:09:56.307Z,8.11
2023-04-29T03:10:56.313Z,8.10
2023-04-29T03:11:56.276Z,8.10
2023-04-29T03:12:54.822Z,8.11
2023-04-29T03:13:56.264Z,8.08
2023-04-29T03:14:56.236Z,8.08
2023-04-29T03:15:56.217Z,8.08
2023-04-29T03:16:56.252Z,8.08
2023-04-29T03:17:56.252Z,8.07
2023-04-29T03:18:56.189Z,8.04
2023-04-29T03:19:56.175Z,7.99
2023-04-29T03:20:56.143Z,7.94
2023-04-29T03:21:56.143Z,7.93
2023-04-29T03:22:56.135Z,7.93
2023-04-29T03:23:56.113Z,7.92
2023-04-29T03:24:56.109Z,7.90
2023-04-29T03:25:56.132Z,7.87
2023-04-29T03:26:56.082Z,7.85
2023-04-29T03:27:56.058Z,7.87
2023-04-29T03:28:54.586Z,7.84
2023-04-29T03:29:56.026Z,7.79
2023-04-29T03:30:56.026Z,7.75
2023-04-29T03:31:56.021Z,7.71
2023-04-29T03:32:56.080Z,7.67
2023-04-29T03:33:55.975Z,7.69
2023-04-29T03:34:55.962Z,7.69
2023-04-29T03:35:55.951Z,7.69
2023-04-29T03:36:55.921Z,7.72
2023-04-29T03:37:55.914Z,7.72
2023-04-29T03:38:55.921Z,7.74
2023-04-29T03:39:55.890Z,7.79
2023-04-29T03:40:55.879Z,7.81
2023-04-29T03:41:55.865Z,7.85
2023-04-29T03:42:55.847Z,7.87
2023-04-29T03:43:55.843Z,7.89
2023-04-29T03:44:54.393Z,7.92
2023-04-29T03:45:55.878Z,7.89
2023-04-29T03:46:55.817Z,7.89
2023-04-29T03:47:55.846Z,7.90
2023-04-29T03:48:55.782Z,7.89
2023-04-29T03:49:55.769Z,7.90
2023-04-29T03:50:55.747Z,7.93
2023-04-29T03:51:54.299Z,7.93
2023-04-29T03:52:54.252Z,7.93
2023-04-29T03:53:55.709Z,7.93
2023-04-29T03:54:55.694Z,7.94
2023-04-29T03:55:55.670Z,7.94
2023-04-29T03:56:56.550Z,7.97
2023-04-29T03:57:55.642Z,8.00
2023-04-29T03:58:55.648Z,8.00
2023-04-29T03:59:55.627Z,8.00
2023-04-29T04:00:54.532Z,7.99
2023-04-29T04:01:55.676Z,7.94
2023-04-29T04:02:55.689Z,7.93
2023-04-29T04:03:55.752Z,7.89
2023-04-29T04:04:55.697Z,7.89
2023-04-29T04:05:55.051Z,7.82
2023-04-29T04:06:55.527Z,7.79
2023-04-29T04:07:54.538Z,7.77
2023-04-29T04:08:54.733Z,7.75
2023-04-29T04:09:55.690Z,7.69
2023-04-29T04:10:55.475Z,7.69
2023-04-29T04:11:55.461Z,7.67
2023-04-29T04:12:55.476Z,7.63
2023-04-29T04:13:55.441Z,7.60
2023-04-29T04:14:55.406Z,7.59
2023-04-29T04:15:55.453Z,7.55
2023-04-29T04:16:54.543Z,7.52
2023-04-29T04:17:55.420Z,7.52
2023-04-29T04:18:55.363Z,7.52
2023-04-29T04:19:55.369Z,7.49
2023-04-29T04:20:55.331Z,7.45
2023-04-29T04:21:55.319Z,7.42
2023-04-29T04:22:55.300Z,7.42
2023-04-29T04:23:55.288Z,7.44
2023-04-29T04:24:53.848Z,7.44
2023-04-29T04:25:55.272Z,7.42
2023-04-29T04:26:55.251Z,7.47
2023-04-29T04:27:55.232Z,7.53
2023-04-29T04:28:55.251Z,7.58
2023-04-29T04:29:55.219Z,7.62
2023-04-29T04:30:55.216Z,7.69
2023-04-29T04:31:55.230Z,7.72
2023-04-29T04:32:55.225Z,7.74
2023-04-29T04:33:55.173Z,7.78
2023-04-29T04:34:55.147Z,7.82
2023-04-29T04:35:55.134Z,7.85
2023-04-29T04:36:55.124Z,7.94
2023-04-29T04:37:55.111Z,8.00
2023-04-29T04:38:55.156Z,8.03
2023-04-29T04:39:55.102Z,8.08
2023-04-29T04:40:53.624Z,8.14
2023-04-29T04:41:55.056Z,8.18
2023-04-29T04:42:55.292Z,8.22
2023-04-29T04:43:55.029Z,8.28
2023-04-29T04:44:55.032Z,8.30
2023-04-29T04:45:55.041Z,8.33
2023-04-29T04:46:54.974Z,8.33
2023-04-29T04:47:55.075Z,8.36
2023-04-29T04:48:54.966Z,8.37
2023-04-29T04:49:55.179Z,8.39
2023-04-29T04:50:54.927Z,8.44
2023-04-29T04:51:54.918Z,8.47
2023-04-29T04:52:54.905Z,8.48
2023-04-29T04:53:54.900Z,8.48
2023-04-29T04:54:54.878Z,8.55
2023-04-29T04:55:53.889Z,8.62
2023-04-29T04:56:54.842Z,8.69
2023-04-29T04:57:54.352Z,8.72
2023-04-29T04:58:54.847Z,8.81
2023-04-29T04:59:54.909Z,8.86
2023-04-29T05:00:54.846Z,8.88
2023-04-29T05:01:53.858Z,8.94
2023-04-29T05:02:53.993Z,8.97
2023-04-29T05:03:53.933Z,9.02
2023-04-29T05:04:54.740Z,9.04
2023-04-29T05:05:54.734Z,9.09
2023-04-29T05:06:53.273Z,9.16
2023-04-29T05:07:54.707Z,9.23
2023-04-29T05:08:54.698Z,9.28
2023-04-29T05:09:54.737Z,9.34
2023-04-29T05:10:54.662Z,9.40
2023-04-29T05:11:53.386Z,9.45
2023-04-29T05:12:53.190Z,9.49
2023-04-29T05:13:54.645Z,9.53
2023-04-29T05:14:54.601Z,9.58
2023-04-29T05:15:54.598Z,9.63
2023-04-29T05:16:54.615Z,9.67
2023-04-29T05:17:54.093Z,9.70
2023-04-29T05:18:53.642Z,9.70
2023-04-29T05:19:53.926Z,9.76
2023-04-29T05:20:54.533Z,9.78
2023-04-29T05:21:54.515Z,9.81
2023-04-29T05:22:54.493Z,9.82
2023-04-29T05:23:54.492Z,9.91
2023-04-29T05:24:54.483Z,9.96
2023-04-29T05:25:54.469Z,10.01
2023-04-29T05:26:54.455Z,10.09
2023-04-29T05:27:54.430Z,10.14
2023-04-29T05:28:54.425Z,10.19
2023-04-29T05:29:54.592Z,10.26
2023-04-29T05:30:54.579Z,10.33
2023-04-29T05:31:54.396Z,10.37
2023-04-29T05:32:54.415Z,10.44
2023-04-29T05:33:54.370Z,10.52
2023-04-29T05:34:54.480Z,10.59
2023-04-29T05:35:54.316Z,10.65
2023-04-29T05:36:54.317Z,10.74
2023-04-29T05:37:54.315Z,10.78
2023-04-29T05:38:54.276Z,10.88
2023-04-29T05:39:54.489Z,10.96
2023-04-29T05:40:54.255Z,11.01
2023-04-29T05:41:54.248Z,11.06
2023-04-29T05:42:54.238Z,11.07
2023-04-29T05:43:54.233Z,11.07
2023-04-29T05:44:54.206Z,11.09
2023-04-29T05:45:54.230Z,11.03
2023-04-29T05:46:54.174Z,11.07
2023-04-29T05:47:54.204Z,11.14
2023-04-29T05:48:54.164Z,11.16
2023-04-29T05:49:54.518Z,11.17
2023-04-29T05:50:54.121Z,11.27
2023-04-29T05:51:54.104Z,11.24
2023-04-29T05:52:54.097Z,11.31
2023-04-29T05:53:54.085Z,11.38
2023-04-29T05:54:54.089Z,11.43
2023-04-29T05:55:54.056Z,11.52
2023-04-29T05:56:54.037Z,11.61
2023-04-29T05:57:54.023Z,11.71
2023-04-29T05:58:54.012Z,11.77
2023-04-29T05:59:54.141Z,11.85
2023-04-29T06:00:53.981Z,11.90
2023-04-29T06:01:53.982Z,11.99
2023-04-29T06:02:58.685Z,12.09
2023-04-29T06:03:55.098Z,12.16
2023-04-29T06:04:54.068Z,12.24
2023-04-29T06:05:54.215Z,12.30
2023-04-29T06:06:53.929Z,12.24
2023-04-29T06:07:52.656Z,12.13
2023-04-29T06:08:52.646Z,12.20
2023-04-29T06:09:54.150Z,12.24
2023-04-29T06:10:53.851Z,12.30
2023-04-29T06:11:53.846Z,12.37
2023-04-29T06:12:53.861Z,12.38
2023-04-29T06:13:53.824Z,12.45
2023-04-29T06:14:53.797Z,12.48
2023-04-29T06:15:52.732Z,12.54
2023-04-29T06:16:52.655Z,12.45
2023-04-29T06:17:53.791Z,12.38
2023-04-29T06:18:53.736Z,12.38
2023-04-29T06:19:53.260Z,12.37
2023-04-29T06:20:52.290Z,12.44
2023-04-29T06:21:53.693Z,12.38
2023-04-29T06:22:53.698Z,12.38
2023-04-29T06:23:52.660Z,12.34
2023-04-29T06:24:52.689Z,12.39
2023-04-29T06:25:53.658Z,12.37
2023-04-29T06:26:52.686Z,12.33
2023-04-29T06:27:52.682Z,12.39
2023-04-29T06:28:52.674Z,12.42
2023-04-29T06:29:52.933Z,12.42
2023-04-29T06:30:53.579Z,12.52
2023-04-29T06:31:53.591Z,12.67
2023-04-29T06:32:52.138Z,12.79
2023-04-29T06:33:53.543Z,13.00
2023-04-29T06:34:52.222Z,13.15
2023-04-29T06:35:53.513Z,13.22
2023-04-29T06:36:53.488Z,13.22
2023-04-29T06:37:53.477Z,13.27
2023-04-29T06:38:53.480Z,13.36
2023-04-29T06:39:53.761Z,13.37
2023-04-29T06:40:53.437Z,13.30
2023-04-29T06:41:53.428Z,13.21
2023-04-29T06:42:53.420Z,13.18
2023-04-29T06:43:53.397Z,13.25
2023-04-29T06:44:53.406Z,13.37
2023-04-29T06:45:53.377Z,13.38
2023-04-29T06:46:53.378Z,13.37
2023-04-29T06:47:53.430Z,13.43
2023-04-29T06:48:53.323Z,13.52
2023-04-29T06:49:53.690Z,13.44
2023-04-29T06:50:53.327Z,13.38
2023-04-29T06:51:53.292Z,13.41
2023-04-29T06:52:53.282Z,13.51
2023-04-29T06:53:53.268Z,13.47
2023-04-29T06:54:53.265Z,13.55
2023-04-29T06:55:53.235Z,13.54
2023-04-29T06:56:53.227Z,13.52
2023-04-29T06:57:53.222Z,13.46
2023-04-29T06:58:53.209Z,13.51
2023-04-29T06:59:53.309Z,13.52
2023-04-29T07:00:53.218Z,13.43
2023-04-29T07:01:53.242Z,13.46
2023-04-29T07:02:53.213Z,13.38
2023-04-29T07:03:51.840Z,13.36
2023-04-29T07:04:53.195Z,13.40
2023-04-29T07:05:53.089Z,13.36
2023-04-29T07:06:53.087Z,13.36
2023-04-29T07:07:53.075Z,13.29
2023-04-29T07:08:54.867Z,13.32
2023-04-29T07:09:53.212Z,13.37
2023-04-29T07:10:53.031Z,13.25
2023-04-29T07:11:52.012Z,13.25
2023-04-29T07:12:53.012Z,13.29
2023-04-29T07:13:53.001Z,13.27
2023-04-29T07:14:53.016Z,13.29
2023-04-29T07:15:52.009Z,13.36
2023-04-29T07:16:52.031Z,13.44
2023-04-29T07:17:52.034Z,13.43
2023-04-29T07:18:52.933Z,13.44
2023-04-29T07:19:51.718Z,13.33
2023-04-29T07:20:52.980Z,13.32
2023-04-29T07:21:52.530Z,13.32
2023-04-29T07:22:51.556Z,13.37
2023-04-29T07:23:52.866Z,13.40
2023-04-29T07:24:51.742Z,13.41
2023-04-29T07:25:52.850Z,13.51
2023-04-29T07:26:52.816Z,13.52
2023-04-29T07:27:51.712Z,13.32
2023-04-29T07:28:52.829Z,13.38
2023-04-29T07:29:52.804Z,13.37
2023-04-29T07:30:52.886Z,13.41
2023-04-29T07:31:51.574Z,13.41
2023-04-29T07:32:51.929Z,13.40
2023-04-29T07:33:52.774Z,13.40
2023-04-29T07:34:53.659Z,13.33
2023-04-29T07:35:51.954Z,13.32
2023-04-29T07:36:51.990Z,13.38
2023-04-29T07:37:52.664Z,13.44
2023-04-29T07:38:52.665Z,13.46
2023-04-29T07:39:52.641Z,13.43
2023-04-29T07:40:52.627Z,13.51
2023-04-29T07:41:52.597Z,13.51
2023-04-29T07:42:52.594Z,13.54
2023-04-29T07:43:51.884Z,13.55
2023-04-29T07:44:52.699Z,13.44
2023-04-29T07:45:52.580Z,13.37
2023-04-29T07:46:52.538Z,13.38
2023-04-29T07:47:52.598Z,13.41
2023-04-29T07:48:52.504Z,13.44
2023-04-29T07:49:52.494Z,13.41
2023-04-29T07:50:52.500Z,13.46
2023-04-29T07:51:51.162Z,13.54
2023-04-29T07:52:52.457Z,13.55
2023-04-29T07:53:52.449Z,13.58
2023-04-29T07:54:52.600Z,13.51
2023-04-29T07:55:52.428Z,13.47
2023-04-29T07:56:52.391Z,13.41
2023-04-29T07:57:52.390Z,13.41
2023-04-29T07:58:52.368Z,13.43
2023-04-29T07:59:52.372Z,13.47
2023-04-29T08:00:52.368Z,13.51
2023-04-29T08:01:52.340Z,13.56
2023-04-29T08:02:52.507Z,13.59
2023-04-29T08:03:52.661Z,13.58
2023-04-29T08:04:52.761Z,13.43
2023-04-29T08:05:52.318Z,13.49
2023-04-29T08:06:52.256Z,13.54
2023-04-29T08:07:52.265Z,13.59
2023-04-29T08:08:52.764Z,13.63
2023-04-29T08:09:52.231Z,13.69
2023-04-29T08:10:52.235Z,13.69
2023-04-29T08:11:52.214Z,13.67
2023-04-29T08:12:52.186Z,13.69
2023-04-29T08:13:52.190Z,13.76
2023-04-29T08:14:51.230Z,13.73
2023-04-29T08:15:50.941Z,13.67
2023-04-29T08:16:52.133Z,13.71
2023-04-29T08:17:52.362Z,13.77
2023-04-29T08:18:52.103Z,13.84
2023-04-29T08:19:52.093Z,13.81
2023-04-29T08:20:52.098Z,13.79
2023-04-29T08:21:50.804Z,13.79
2023-04-29T08:22:52.046Z,13.76
2023-04-29T08:23:50.826Z,13.74
2023-04-29T08:24:52.236Z,13.73
2023-04-29T08:25:52.081Z,13.71
2023-04-29T08:26:51.990Z,13.80
2023-04-29T08:27:51.981Z,13.94
2023-04-29T08:28:51.954Z,13.99
2023-04-29T08:29:51.955Z,14.04
2023-04-29T08:30:51.951Z,14.14
2023-04-29T08:31:50.526Z,14.14
2023-04-29T08:32:51.965Z,14.14
2023-04-29T08:33:51.908Z,14.20
2023-04-29T08:34:52.075Z,14.25
2023-04-29T08:35:51.878Z,14.20
2023-04-29T08:36:51.869Z,14.10
2023-04-29T08:37:51.833Z,14.09
2023-04-29T08:38:51.266Z,14.04
2023-04-29T08:39:50.865Z,14.04
2023-04-29T08:40:51.816Z,14.09
2023-04-29T08:41:51.807Z,14.10
2023-04-29T08:42:51.777Z,14.14
2023-04-29T08:43:51.758Z,14.16
2023-04-29T08:44:51.066Z,14.21
2023-04-29T08:45:51.806Z,14.32
2023-04-29T08:46:51.708Z,14.25
2023-04-29T08:47:50.279Z,14.27
2023-04-29T08:48:51.742Z,14.24
2023-04-29T08:49:51.680Z,14.32
2023-04-29T08:50:51.677Z,14.32
2023-04-29T08:51:51.643Z,14.28
2023-04-29T08:52:51.658Z,14.27
2023-04-29T08:53:51.639Z,14.31
2023-04-29T08:54:51.787Z,14.32
2023-04-29T08:55:51.591Z,14.28
2023-04-29T08:56:51.577Z,14.21
2023-04-29T08:57:51.553Z,14.24
2023-04-29T08:58:51.554Z,14.37
2023-04-29T08:59:51.543Z,14.47
2023-04-29T09:00:51.585Z,14.49
2023-04-29T09:01:51.517Z,14.46
2023-04-29T09:02:51.571Z,14.38
2023-04-29T09:03:50.346Z,14.46
2023-04-29T09:04:51.754Z,14.39
2023-04-29T09:05:51.448Z,14.38
2023-04-29T09:06:51.438Z,14.31
2023-04-29T09:07:51.432Z,14.34
2023-04-29T09:08:51.447Z,14.32
2023-04-29T09:09:51.404Z,14.43
2023-04-29T09:10:51.387Z,14.42
2023-04-29T09:11:49.933Z,14.39
2023-04-29T09:12:51.354Z,14.37
2023-04-29T09:13:51.339Z,14.39
2023-04-29T09:14:51.505Z,14.37
2023-04-29T09:15:51.329Z,14.32
2023-04-29T09:16:51.363Z,14.35
2023-04-29T09:17:51.345Z,14.32
2023-04-29T09:18:51.335Z,14.28
2023-04-29T09:19:50.210Z,14.34
2023-04-29T09:20:51.252Z,14.28
2023-04-29T09:21:51.255Z,14.17
2023-04-29T09:22:51.225Z,14.17
2023-04-29T09:23:50.243Z,14.17
2023-04-29T09:24:51.321Z,14.17
2023-04-29T09:25:51.184Z,14.19
2023-04-29T09:26:51.704Z,14.10
2023-04-29T09:27:49.696Z,14.12
2023-04-29T09:28:50.633Z,14.16
2023-04-29T09:29:50.174Z,14.12
2023-04-29T09:30:51.116Z,14.20
2023-04-29T09:31:51.149Z,14.27
2023-04-29T09:32:51.145Z,14.34
2023-04-29T09:33:51.074Z,14.43
2023-04-29T09:34:50.259Z,14.46
2023-04-29T09:35:50.214Z,14.49
2023-04-29T09:36:51.055Z,14.50
2023-04-29T09:37:51.021Z,14.60
2023-04-29T09:38:51.014Z,14.61
2023-04-29T09:39:51.006Z,14.71
2023-04-29T09:41:51.978Z,14.75
2023-04-29T09:42:49.741Z,14.81
2023-04-29T09:43:49.941Z,14.80
2023-04-29T09:44:51.011Z,14.83
2023-04-29T09:45:50.995Z,14.87
2023-04-29T09:46:50.922Z,14.88
2023-04-29T09:47:50.900Z,14.90
2023-04-29T09:48:50.875Z,14.93
2023-04-29T09:49:50.816Z,14.98
2023-04-29T09:50:51.805Z,15.02
2023-04-29T09:51:50.839Z,15.03
2023-04-29T09:52:50.818Z,15.03
2023-04-29T09:53:50.797Z,15.06
2023-04-29T09:54:50.794Z,15.03
2023-04-29T09:55:50.778Z,15.06
2023-04-29T09:56:50.764Z,15.03
2023-04-29T09:57:50.758Z,15.03
2023-04-29T09:58:50.778Z,15.02
2023-04-29T09:59:50.737Z,14.99
2023-04-29T10:00:50.706Z,14.93
2023-04-29T10:01:50.823Z,14.75
2023-04-29T10:02:50.755Z,14.46
2023-04-29T10:03:50.743Z,14.49
2023-04-29T10:04:50.799Z,14.49
2023-04-29T10:05:50.743Z,14.53
2023-04-29T10:06:50.644Z,14.54
2023-04-29T10:07:50.619Z,14.52
2023-04-29T10:08:50.596Z,14.39
2023-04-29T10:09:49.342Z,14.37
2023-04-29T10:10:50.598Z,14.27
2023-04-29T10:11:50.571Z,14.14
2023-04-29T10:12:50.565Z,14.17
2023-04-29T10:13:50.532Z,14.21
2023-04-29T10:14:49.288Z,14.19
2023-04-29T10:15:50.535Z,14.24
2023-04-29T10:16:50.502Z,14.29
2023-04-29T10:17:50.467Z,14.35
2023-04-29T10:18:50.485Z,14.42
2023-04-29T10:19:50.447Z,14.43
2023-04-29T10:20:50.505Z,14.50
2023-04-29T10:21:50.442Z,14.52
2023-04-29T10:22:50.530Z,14.50
2023-04-29T10:23:50.451Z,14.47
2023-04-29T10:24:50.538Z,14.44
2023-04-29T10:25:50.377Z,14.49
2023-04-29T10:26:50.362Z,14.57
2023-04-29T10:27:50.338Z,14.65
2023-04-29T10:28:50.335Z,14.60
2023-04-29T10:29:50.313Z,14.56
2023-04-29T10:30:50.304Z,14.57
2023-04-29T10:31:50.509Z,14.56
2023-04-29T10:32:52.092Z,14.60
2023-04-29T10:33:50.255Z,14.68
2023-04-29T10:34:50.246Z,14.80
2023-04-29T10:35:48.819Z,14.81
2023-04-29T10:36:50.221Z,14.72
2023-04-29T10:37:50.239Z,14.69
2023-04-29T10:38:49.001Z,14.69
2023-04-29T10:39:48.904Z,14.75
2023-04-29T10:40:50.170Z,14.68
2023-04-29T10:41:50.154Z,14.74
2023-04-29T10:42:50.687Z,14.80
2023-04-29T10:43:50.114Z,14.72
2023-04-29T10:44:50.221Z,14.69
2023-04-29T10:45:50.099Z,14.86
2023-04-29T10:46:50.123Z,14.88
2023-04-29T10:47:50.090Z,14.88
2023-04-29T10:48:50.084Z,14.81
2023-04-29T10:49:49.539Z,14.84
2023-04-29T10:50:50.132Z,14.72
2023-04-29T10:51:50.017Z,14.67
2023-04-29T10:52:49.998Z,14.67
2023-04-29T10:53:49.978Z,14.64
2023-04-29T10:54:48.910Z,14.69
2023-04-29T10:55:48.917Z,14.68
2023-04-29T10:56:49.973Z,14.68
2023-04-29T10:57:48.530Z,14.71
2023-04-29T10:58:49.914Z,14.71
2023-04-29T10:59:48.949Z,14.69
2023-04-29T11:00:48.954Z,14.74
2023-04-29T11:01:49.893Z,14.71
2023-04-29T11:02:49.989Z,14.67
2023-04-29T11:03:50.023Z,14.67
2023-04-29T11:04:49.989Z,14.71
2023-04-29T11:05:49.834Z,14.68
2023-04-29T11:06:49.822Z,14.74
2023-04-29T11:07:49.794Z,14.83
2023-04-29T11:08:49.790Z,14.83
2023-04-29T11:09:49.775Z,14.83
2023-04-29T11:10:48.324Z,14.83
2023-04-29T11:11:49.733Z,14.72
2023-04-29T11:12:49.734Z,14.62
2023-04-29T11:13:49.737Z,14.68
2023-04-29T11:14:49.720Z,14.78
2023-04-29T11:15:49.691Z,14.86
2023-04-29T11:16:48.670Z,14.88
2023-04-29T11:17:49.720Z,14.93
2023-04-29T11:18:49.634Z,14.90
2023-04-29T11:19:49.667Z,14.84
2023-04-29T11:20:49.118Z,14.83
2023-04-29T11:21:49.630Z,14.83
2023-04-29T11:22:49.604Z,14.72
2023-04-29T11:23:49.576Z,14.68
2023-04-29T11:24:49.492Z,14.72
2023-04-29T11:25:49.561Z,14.75
2023-04-29T11:26:49.534Z,14.71
2023-04-29T11:27:49.547Z,14.61
2023-04-29T11:28:49.516Z,14.64
2023-04-29T11:29:49.499Z,14.65
2023-04-29T11:30:49.492Z,14.69
2023-04-29T11:31:49.583Z,14.72
2023-04-29T11:32:49.557Z,14.64
2023-04-29T11:33:49.453Z,14.57
2023-04-29T11:34:47.982Z,14.61
2023-04-29T11:35:49.422Z,14.57
2023-04-29T11:36:49.415Z,14.57
2023-04-29T11:37:49.405Z,14.54
2023-04-29T11:38:49.376Z,14.52
2023-04-29T11:39:49.370Z,14.49
2023-04-29T11:40:49.356Z,14.57
2023-04-29T11:41:51.247Z,14.62
2023-04-29T11:42:49.399Z,14.57
2023-04-29T11:43:49.299Z,14.61
2023-04-29T11:44:48.797Z,14.61
2023-04-29T11:45:49.320Z,14.50
2023-04-29T11:46:49.266Z,14.47
2023-04-29T11:47:48.209Z,14.39
2023-04-29T11:48:49.243Z,14.44
2023-04-29T11:49:48.256Z,14.47
2023-04-29T11:50:48.254Z,14.37
2023-04-29T11:51:48.264Z,14.34
2023-04-29T11:52:49.186Z,14.39
2023-04-29T11:53:49.161Z,14.43
2023-04-29T11:54:49.171Z,14.46
2023-04-29T11:55:49.140Z,14.42
2023-04-29T11:56:49.123Z,14.47
2023-04-29T11:57:47.692Z,14.53
2023-04-29T11:58:49.108Z,14.54
2023-04-29T11:59:49.081Z,14.56
2023-04-29T12:00:49.072Z,14.61
2023-04-29T12:01:49.063Z,14.61
2023-04-29T12:02:49.350Z,14.67
2023-04-29T12:03:49.167Z,14.74
2023-04-29T12:04:49.301Z,14.80
2023-04-29T12:05:49.137Z,14.83
2023-04-29T12:06:49.002Z,14.81
2023-04-29T12:07:48.074Z,14.86
2023-04-29T12:08:48.975Z,14.80
2023-04-29T12:09:48.970Z,14.81
2023-04-29T12:10:48.486Z,14.81
2023-04-29T12:11:48.937Z,14.88
2023-04-29T12:12:48.921Z,14.90
2023-04-29T12:13:48.902Z,15.01
2023-04-29T12:14:48.876Z,15.06
2023-04-29T12:15:48.930Z,15.06
2023-04-29T12:16:48.886Z,14.94
2023-04-29T12:17:48.936Z,14.93
2023-04-29T12:18:48.843Z,15.01
2023-04-29T12:19:48.819Z,15.09
2023-04-29T12:20:48.833Z,15.19
2023-04-29T12:21:48.785Z,15.24
2023-04-29T12:22:48.777Z,15.33
2023-04-29T12:23:48.775Z,15.27
2023-04-29T12:24:48.754Z,15.36
2023-04-29T12:25:48.731Z,15.42
2023-04-29T12:26:48.716Z,15.19
2023-04-29T12:27:48.719Z,15.28
2023-04-29T12:28:48.694Z,15.28
2023-04-29T12:29:48.685Z,15.28
2023-04-29T12:30:48.676Z,15.35
2023-04-29T12:31:48.685Z,15.46
2023-04-29T12:32:48.747Z,15.56
2023-04-29T12:33:48.626Z,15.59
2023-04-29T12:34:48.104Z,15.60
2023-04-29T12:35:48.088Z,15.64
2023-04-29T12:36:48.571Z,15.74
2023-04-29T12:37:48.574Z,15.76
2023-04-29T12:38:48.057Z,15.78
2023-04-29T12:39:48.542Z,15.84
2023-04-29T12:40:48.541Z,15.94
2023-04-29T12:41:48.518Z,16.04
2023-04-29T12:42:48.496Z,16.07
2023-04-29T12:43:48.487Z,16.14
2023-04-29T12:44:48.564Z,16.27
2023-04-29T12:45:48.471Z,16.27
2023-04-29T12:46:48.506Z,16.26
2023-04-29T12:47:48.457Z,16.03
2023-04-29T12:48:48.428Z,16.15
2023-04-29T12:49:48.450Z,16.09
2023-04-29T12:50:48.376Z,16.09
2023-04-29T12:51:48.373Z,16.15
2023-04-29T12:52:48.366Z,16.23
2023-04-29T12:53:48.356Z,16.34
2023-04-29T12:54:48.334Z,16.37
2023-04-29T12:55:48.316Z,16.34
2023-04-29T12:56:49.195Z,16.35
2023-04-29T12:57:48.290Z,16.42
2023-04-29T12:58:48.286Z,16.27
2023-04-29T12:59:48.267Z,16.30
2023-04-29T13:00:48.275Z,16.20
2023-04-29T13:01:48.326Z,16.31
2023-04-29T13:02:48.448Z,16.20